Time;durP1;ratioP1;P1;durP2;ratioP2;P2;SDS_P1;SDS_P2;PMS_P1;PMS_P2;Temp;Humidity;BMP_temperature;BMP_pressure;BME280_temperature;BME280_humidity;BME280_pressure;Samples;Min_cycle;Max_cycle;Signal;HPM_P1;HPM_P2
2024/03/16 00:02:49;;;;;;;2.30;2.30;;;11.20;99.90;;;;;;10558552;28;20223;-80
2024/03/16 00:07:52;;;;;;;2.40;2.40;;;11.20;99.90;;;;;;10557918;28;20275;-80
2024/03/16 00:12:54;;;;;;;1.97;1.97;;;11.20;99.90;;;;;;10560165;28;20191;-80
2024/03/16 00:17:57;;;;;;;1.70;1.70;;;11.40;99.90;;;;;;10541505;28;20227;-80
2024/03/16 00:22:59;;;;;;;1.90;1.90;;;11.40;99.90;;;;;;10552851;28;20210;-80
2024/03/16 00:28:02;;;;;;;1.70;1.70;;;11.40;99.90;;;;;;10558507;28;20223;-80
2024/03/16 00:33:05;;;;;;;1.10;1.10;;;11.50;99.90;;;;;;10551981;28;20188;-80
2024/03/16 00:38:09;;;;;;;1.20;1.20;;;11.40;99.90;;;;;;10527078;28;20215;-80
2024/03/16 00:43:17;;;;;;;1.00;1.00;;;11.40;99.90;;;;;;10554102;28;20636;-80
2024/03/16 00:48:20;;;;;;;1.00;1.00;;;11.30;99.90;;;;;;10551375;28;20230;-81
2024/03/16 00:53:22;;;;;;;1.00;1.00;;;11.30;99.90;;;;;;10563130;28;20643;-81
2024/03/16 00:58:25;;;;;;;1.10;1.10;;;11.20;99.90;;;;;;10554664;28;20223;-80
2024/03/16 01:03:27;;;;;;;1.07;1.07;;;11.30;99.90;;;;;;10563601;28;20684;-80
2024/03/16 01:08:30;;;;;;;0.90;0.90;;;11.20;99.90;;;;;;10549500;28;20226;-81
2024/03/16 01:13:32;;;;;;;0.80;0.80;;;11.30;99.90;;;;;;10547886;28;20268;-81
2024/03/16 01:18:35;;;;;;;0.80;0.80;;;11.30;99.90;;;;;;10556804;28;20267;-81
2024/03/16 01:23:37;;;;;;;0.80;0.80;;;11.20;99.90;;;;;;10566675;28;20236;-81
2024/03/16 01:28:40;;;;;;;0.70;0.70;;;11.30;99.90;;;;;;10559036;28;20227;-81
2024/03/16 01:33:42;;;;;;;0.60;0.60;;;11.30;99.90;;;;;;10559512;28;20236;-80
2024/03/16 01:38:45;;;;;;;0.70;0.70;;;11.30;99.90;;;;;;10560584;28;20622;-81
2024/03/16 01:43:48;;;;;;;0.70;0.70;;;11.40;99.90;;;;;;10564486;28;20218;-81
2024/03/16 01:48:54;;;;;;;0.70;0.70;;;11.40;99.90;;;;;;10588423;28;20227;-81
2024/03/16 01:53:56;;;;;;;0.57;0.57;;;11.40;99.90;;;;;;10586566;28;20668;-80
2024/03/16 01:58:59;;;;;;;0.70;0.70;;;11.40;99.90;;;;;;10577208;28;20760;-80
2024/03/16 02:04:03;;;;;;;0.63;0.63;;;11.40;99.90;;;;;;10576493;28;20245;-81
2024/03/16 02:09:06;;;;;;;0.60;0.60;;;11.40;99.90;;;;;;10585240;28;20214;-81
2024/03/16 02:14:08;;;;;;;0.70;0.70;;;11.40;99.90;;;;;;10568006;28;20199;-81
2024/03/16 02:19:11;;;;;;;0.70;0.70;;;11.40;99.90;;;;;;10582800;28;20633;-81
2024/03/16 02:24:14;;;;;;;0.80;0.80;;;11.40;99.90;;;;;;10564964;28;20646;-81
2024/03/16 02:29:18;;;;;;;0.60;0.60;;;11.40;99.90;;;;;;10580508;28;20280;-81
2024/03/16 02:34:20;;;;;;;0.60;0.60;;;11.40;99.90;;;;;;10566590;28;20198;-81
2024/03/16 02:39:23;;;;;;;0.60;0.60;;;11.50;99.90;;;;;;10585239;28;20252;-82
2024/03/16 02:44:25;;;;;;;0.70;0.70;;;11.50;99.90;;;;;;10569491;28;20591;-81
2024/03/16 02:49:28;;;;;;;0.60;0.60;;;11.50;99.90;;;;;;10583604;28;20231;-81
2024/03/16 02:54:30;;;;;;;0.70;0.70;;;11.50;99.90;;;;;;10566552;28;20192;-81
2024/03/16 02:59:33;;;;;;;0.60;0.60;;;11.50;99.90;;;;;;10582436;28;20219;-81
2024/03/16 03:04:35;;;;;;;0.80;0.80;;;11.50;99.90;;;;;;10567371;28;20222;-81
2024/03/16 03:09:37;;;;;;;0.70;0.70;;;11.50;99.90;;;;;;10585554;28;20589;-81
2024/03/16 03:14:40;;;;;;;0.60;0.60;;;11.50;99.90;;;;;;10567691;28;20200;-81
2024/03/16 03:19:44;;;;;;;0.50;0.50;;;11.50;99.90;;;;;;10584079;28;20230;-81
2024/03/16 03:24:47;;;;;;;0.60;0.60;;;11.50;99.90;;;;;;10566226;28;20211;-80
2024/03/16 03:29:49;;;;;;;0.53;0.53;;;11.50;99.90;;;;;;10565875;28;20223;-81
2024/03/16 03:34:52;;;;;;;0.70;0.70;;;11.60;99.90;;;;;;10565931;28;20237;-81
2024/03/16 03:39:54;;;;;;;0.70;0.70;;;11.60;99.90;;;;;;10548187;28;20600;-81
2024/03/16 03:45:11;;;;;;;0.90;0.90;;;11.60;99.90;;;;;;10565978;28;20217;-81
2024/03/16 03:50:13;;;;;;;0.80;0.80;;;11.50;99.90;;;;;;10567353;28;20219;-81
2024/03/16 03:55:15;;;;;;;1.10;1.10;;;11.40;99.90;;;;;;10557317;28;20198;-81
2024/03/16 04:00:18;;;;;;;0.90;0.90;;;11.40;99.90;;;;;;10568424;28;20640;-81
2024/03/16 04:05:22;;;;;;;1.37;1.37;;;11.50;99.90;;;;;;10564061;28;20692;-81
2024/03/16 04:10:24;;;;;;;1.10;1.10;;;11.50;99.90;;;;;;10565353;28;20671;-80
2024/03/16 04:15:27;;;;;;;1.00;1.00;;;11.50;99.90;;;;;;10576394;28;20252;-81
2024/03/16 04:20:29;;;;;;;1.00;1.00;;;11.60;99.90;;;;;;10566020;28;20280;-81
2024/03/16 04:25:31;;;;;;;1.00;1.00;;;11.60;99.90;;;;;;10576692;28;20215;-81
2024/03/16 04:30:34;;;;;;;1.10;1.10;;;11.70;99.90;;;;;;10566395;28;20720;-81
2024/03/16 04:35:37;;;;;;;1.40;1.40;;;11.70;99.90;;;;;;10544340;28;20620;-81
2024/03/16 04:40:39;;;;;;;1.40;1.40;;;11.80;99.90;;;;;;10567154;28;20215;-81
2024/03/16 04:45:42;;;;;;;1.70;1.70;;;11.80;99.90;;;;;;10578143;28;20223;-81
2024/03/16 04:50:44;;;;;;;1.80;1.80;;;11.70;99.90;;;;;;10566654;28;20734;-81
2024/03/16 04:55:47;;;;;;;1.40;1.40;;;11.60;99.90;;;;;;10562214;28;20260;-80
2024/03/16 05:00:49;;;;;;;2.30;2.30;;;11.40;99.90;;;;;;10566540;28;20717;-80
2024/03/16 05:05:51;;;;;;;2.30;2.30;;;11.20;99.90;;;;;;10545250;28;20211;-81
2024/03/16 05:10:54;;;;;;;2.10;2.10;;;11.10;99.90;;;;;;10568501;28;20230;-80
2024/03/16 05:15:56;;;;;;;2.10;2.10;;;11.00;99.90;;;;;;10570683;28;20187;-80
2024/03/16 05:20:59;;;;;;;2.20;2.20;;;10.90;99.90;;;;;;10575796;28;20704;-80
2024/03/16 05:26:01;;;;;;;2.50;2.50;;;10.90;99.90;;;;;;10575173;28;20222;-80
2024/03/16 05:31:04;;;;;;;2.33;2.33;;;10.90;99.90;;;;;;10576500;28;20223;-81
2024/03/16 05:36:09;;;;;;;2.33;2.33;;;10.90;99.90;;;;;;10575296;28;20586;-81
2024/03/16 05:41:11;;;;;;;1.83;1.83;;;10.90;99.90;;;;;;10560174;28;20283;-80
2024/03/16 05:46:14;;;;;;;1.90;1.90;;;10.90;99.90;;;;;;10576372;28;20621;-80
2024/03/16 05:51:17;;;;;;;1.73;1.73;;;11.00;99.90;;;;;;10593256;28;20288;-80
2024/03/16 05:56:20;;;;;;;1.60;1.60;;;11.00;99.90;;;;;;10581487;28;20221;-79
2024/03/16 06:01:22;;;;;;;1.83;1.83;;;11.00;99.90;;;;;;10630911;28;20279;-79
2024/03/16 06:06:24;;;;;;;1.40;1.40;;;11.10;99.90;;;;;;10630020;28;20269;-80
2024/03/16 06:11:27;;;;;;;1.40;1.40;;;11.20;99.90;;;;;;10600766;28;20196;-80
2024/03/16 06:16:29;;;;;;;1.27;1.27;;;11.20;99.90;;;;;;10591746;28;20610;-80
2024/03/16 06:21:32;;;;;;;1.40;1.40;;;11.30;99.90;;;;;;10588891;28;20195;-80
2024/03/16 06:26:36;;;;;;;1.17;1.17;;;11.40;99.90;;;;;;10571620;28;20589;-81
2024/03/16 06:31:41;;;;;;;1.07;1.07;;;11.50;99.90;;;;;;10589707;28;20195;-81
2024/03/16 06:36:43;;;;;;;1.30;1.30;;;11.60;99.90;;;;;;10574558;28;20276;-81
2024/03/16 06:41:45;;;;;;;1.10;1.10;;;11.70;99.90;;;;;;10591017;28;20541;-80
2024/03/16 06:46:48;;;;;;;1.00;1.00;;;11.80;99.90;;;;;;10589875;28;20284;-81
2024/03/16 06:51:51;;;;;;;1.00;1.00;;;11.90;99.90;;;;;;10557432;28;20191;-81
2024/03/16 06:56:53;;;;;;;0.90;0.90;;;11.90;99.90;;;;;;10589842;28;20645;-81
2024/03/16 07:01:55;;;;;;;1.20;1.20;;;11.90;99.90;;;;;;10582935;28;20183;-81
2024/03/16 07:06:58;;;;;;;1.20;1.20;;;11.90;99.90;;;;;;10598027;28;20226;-81
2024/03/16 07:12:00;;;;;;;1.30;1.30;;;11.80;99.90;;;;;;10590218;28;20187;-82
2024/03/16 07:17:03;;;;;;;1.00;1.00;;;11.80;99.90;;;;;;10590650;28;20768;-82
2024/03/16 07:22:05;;;;;;;1.20;1.20;;;11.80;99.90;;;;;;10574056;28;20240;-81
2024/03/16 07:27:08;;;;;;;1.00;1.00;;;11.90;99.90;;;;;;10555981;28;20228;-82
2024/03/16 07:32:10;;;;;;;1.40;1.40;;;11.90;99.90;;;;;;10572708;28;20230;-81
2024/03/16 07:37:14;;;;;;;0.97;0.97;;;11.90;99.90;;;;;;10587603;28;20628;-81
2024/03/16 07:42:17;;;;;;;1.40;1.40;;;11.90;99.90;;;;;;10571118;28;20211;-81
2024/03/16 07:47:19;;;;;;;2.60;2.60;;;11.90;99.90;;;;;;10586186;28;20483;-81
2024/03/16 07:52:22;;;;;;;2.80;2.80;;;11.80;99.90;;;;;;10585652;28;20214;-80
2024/03/16 07:57:24;;;;;;;4.00;4.00;;;11.80;99.90;;;;;;10584439;28;20908;-81
2024/03/16 08:02:27;;;;;;;4.00;4.00;;;11.70;99.90;;;;;;10577011;28;20208;-81
2024/03/16 08:07:29;;;;;;;3.70;3.70;;;11.60;99.90;;;;;;10583383;28;20226;-80
2024/03/16 08:12:32;;;;;;;4.00;4.00;;;11.60;99.90;;;;;;10581221;28;20192;-80
2024/03/16 08:17:34;;;;;;;4.30;4.30;;;11.60;99.90;;;;;;10575556;28;20260;-80
2024/03/16 08:22:37;;;;;;;3.27;3.27;;;11.60;99.90;;;;;;10577466;28;20199;-80
2024/03/16 08:27:40;;;;;;;4.07;4.07;;;11.60;99.90;;;;;;10582008;28;20625;-80
2024/03/16 08:32:43;;;;;;;3.70;3.70;;;11.50;99.90;;;;;;10586142;28;20206;-80
2024/03/16 08:37:45;;;;;;;3.90;3.90;;;11.60;99.90;;;;;;10582986;28;20222;-80
2024/03/16 08:42:48;;;;;;;3.70;3.70;;;11.70;99.90;;;;;;10585405;28;20252;-80
2024/03/16 08:47:51;;;;;;;2.70;2.70;;;11.90;99.90;;;;;;10575217;28;20222;-80
2024/03/16 08:52:53;;;;;;;4.20;4.20;;;12.00;99.90;;;;;;10583196;28;20203;-81
2024/03/16 08:57:56;;;;;;;3.90;3.90;;;12.20;99.90;;;;;;10564901;28;20307;-80
2024/03/16 09:03:00;;;;;;;4.70;4.70;;;12.40;99.90;;;;;;10583073;28;20652;-80
2024/03/16 09:08:03;;;;;;;4.30;4.30;;;12.50;99.90;;;;;;10582428;28;20623;-81
2024/03/16 09:13:05;;;;;;;3.70;3.70;;;12.70;99.90;;;;;;10581760;28;20203;-80
2024/03/16 09:18:08;;;;;;;3.50;3.50;;;12.90;99.90;;;;;;10583034;28;20700;-81
2024/03/16 09:23:10;;;;;;;2.50;2.50;;;13.10;99.90;;;;;;10581503;28;20191;-81
2024/03/16 09:28:13;;;;;;;1.80;1.80;;;13.30;99.90;;;;;;10570886;28;20227;-81
2024/03/16 09:33:16;;;;;;;1.97;1.97;;;13.50;99.90;;;;;;10585061;28;20256;-81
2024/03/16 09:38:18;;;;;;;1.77;1.77;;;13.60;99.90;;;;;;10578427;28;20687;-81
2024/03/16 09:43:21;;;;;;;0.70;0.70;;;13.80;99.90;;;;;;10582982;28;20199;-81
2024/03/16 09:48:23;;;;;;;1.30;1.30;;;14.20;99.90;;;;;;10576874;28;20277;-81
2024/03/16 09:53:28;;;;;;;1.10;1.10;;;14.40;99.90;;;;;;10549560;28;20203;-82
2024/03/16 09:58:31;;;;;;;1.17;1.17;;;14.60;99.90;;;;;;10577398;28;20226;-81
2024/03/16 10:03:33;;;;;;;0.90;0.90;;;14.70;99.90;;;;;;10565461;28;20244;-81
2024/03/16 10:08:37;;;;;;;0.43;0.43;;;14.80;99.90;;;;;;10565112;28;20219;-81
2024/03/16 10:13:39;;;;;;;0.60;0.60;;;15.00;99.90;;;;;;10556860;28;20233;-82
2024/03/16 10:18:42;;;;;;;0.70;0.70;;;15.10;99.90;;;;;;10575053;28;20207;-81
2024/03/16 10:23:45;;;;;;;0.40;0.40;;;15.10;99.90;;;;;;10574031;28;20226;-81
2024/03/16 10:28:50;;;;;;;0.50;0.50;;;15.10;99.90;;;;;;10598769;28;20215;-81
2024/03/16 10:33:52;;;;;;;0.60;0.60;;;15.10;99.90;;;;;;10597430;28;20191;-81
2024/03/16 10:38:55;;;;;;;0.60;0.60;;;15.00;99.90;;;;;;10579630;28;20207;-81
2024/03/16 10:43:58;;;;;;;0.40;0.40;;;15.00;99.90;;;;;;10591515;28;20195;-81
2024/03/16 10:49:00;;;;;;;0.27;0.27;;;14.90;99.90;;;;;;10581100;28;20707;-81
2024/03/16 10:54:08;;;;;;;0.40;0.40;;;14.90;99.90;;;;;;10583934;28;20183;-81
2024/03/16 10:59:11;;;;;;;0.50;0.50;;;15.10;99.90;;;;;;10561715;28;20576;-81
2024/03/16 11:04:13;;;;;;;0.33;0.33;;;15.00;99.90;;;;;;10560492;28;20724;-80
2024/03/16 11:09:22;;;;;;;0.50;0.50;;;15.00;99.90;;;;;;10564411;28;20583;-80
2024/03/16 11:14:25;;;;;;;0.50;0.50;;;15.00;99.90;;;;;;10566632;28;20273;-82
2024/03/16 11:19:27;;;;;;;0.40;0.40;;;15.00;99.90;;;;;;10570431;28;21261;-80
2024/03/16 11:24:30;;;;;;;0.40;0.40;;;15.00;99.90;;;;;;10560403;28;20207;-80
2024/03/16 11:29:32;;;;;;;0.43;0.43;;;15.00;99.90;;;;;;10563460;28;20612;-81
2024/03/16 11:34:35;;;;;;;0.40;0.40;;;15.00;99.90;;;;;;10569493;28;20768;-80
2024/03/16 11:39:37;;;;;;;0.30;0.30;;;15.00;99.90;;;;;;10568696;28;20215;-80
2024/03/16 11:44:45;;;;;;;0.40;0.40;;;15.00;99.90;;;;;;10566710;28;20654;-81
2024/03/16 11:49:48;;;;;;;0.40;0.40;;;15.10;99.90;;;;;;10570152;28;20231;-81
2024/03/16 11:54:51;;;;;;;0.30;0.30;;;15.10;99.90;;;;;;10569423;28;20199;-80
2024/03/16 11:59:54;;;;;;;0.40;0.40;;;15.10;99.90;;;;;;10571286;28;20307;-80
2024/03/16 12:04:56;;;;;;;0.50;0.50;;;14.90;99.90;;;;;;10562008;28;20245;-80
2024/03/16 12:09:59;;;;;;;0.50;0.50;;;14.70;99.90;;;;;;10567955;28;20276;-81
2024/03/16 12:15:14;;;;;;;0.40;0.40;;;14.60;99.90;;;;;;10539057;28;20199;-80
2024/03/16 12:20:18;;;;;;;0.40;0.40;;;14.60;99.90;;;;;;10554945;28;20214;-80
2024/03/16 12:25:25;;;;;;;0.37;0.37;;;14.60;99.90;;;;;;10553096;28;20202;-80
2024/03/16 12:30:28;;;;;;;0.50;0.50;;;14.80;99.90;;;;;;10561633;28;20220;-80
2024/03/16 12:35:32;;;;;;;0.30;0.30;;;14.90;99.90;;;;;;10556039;28;20198;-81
2024/03/16 12:40:35;;;;;;;0.50;0.50;;;15.10;99.90;;;;;;10550555;28;20228;-81
2024/03/16 12:45:37;;;;;;;0.50;0.50;;;15.20;99.90;;;;;;10569721;28;20610;-80
2024/03/16 12:50:40;;;;;;;0.40;0.40;;;15.20;99.90;;;;;;10583186;28;20219;-81
2024/03/16 12:55:43;;;;;;;0.33;0.33;;;15.20;99.90;;;;;;10566386;28;20549;-80
2024/03/16 13:00:46;;;;;;;0.40;0.40;;;15.20;99.90;;;;;;10596395;28;20232;-79
2024/03/16 13:05:48;;;;;;;0.40;0.40;;;15.00;99.50;;;;;;10605956;28;20183;-80
2024/03/16 13:10:52;;;;;;;0.50;0.50;;;14.80;99.10;;;;;;10596344;28;20231;-80
2024/03/16 13:15:55;;;;;;;0.50;0.50;;;14.60;99.70;;;;;;10568740;28;20215;-81
2024/03/16 13:20:57;;;;;;;0.43;0.43;;;14.60;99.70;;;;;;10558209;28;20229;-81
2024/03/16 13:26:00;;;;;;;0.40;0.40;;;14.50;99.90;;;;;;10549517;28;20668;-81
2024/03/16 13:31:02;;;;;;;0.40;0.40;;;14.50;99.90;;;;;;10570272;28;20219;-82
2024/03/16 13:36:05;;;;;;;0.30;0.30;;;14.60;99.90;;;;;;10565140;28;20191;-81
2024/03/16 13:41:07;;;;;;;0.40;0.40;;;14.60;99.90;;;;;;10564474;28;20215;-81
2024/03/16 13:46:12;;;;;;;0.40;0.40;;;14.60;99.90;;;;;;10564948;28;20191;-82
2024/03/16 13:51:15;;;;;;;0.40;0.40;;;14.60;99.60;;;;;;10582791;28;20226;-83
2024/03/16 13:56:17;;;;;;;0.30;0.30;;;14.50;99.40;;;;;;10549953;28;20229;-83
2024/03/16 14:01:20;;;;;;;0.30;0.30;;;14.40;99.50;;;;;;10579245;28;20244;-83
2024/03/16 14:06:22;;;;;;;0.43;0.43;;;14.40;99.90;;;;;;10566859;28;20211;-83
2024/03/16 14:11:25;;;;;;;0.47;0.47;;;14.40;99.90;;;;;;10575499;28;20212;-82
2024/03/16 14:16:27;;;;;;;0.50;0.50;;;14.40;99.90;;;;;;10559583;28;20203;-80
2024/03/16 14:21:30;;;;;;;0.50;0.50;;;14.30;99.90;;;;;;10555202;28;20210;-80
2024/03/16 14:26:33;;;;;;;0.40;0.40;;;14.50;99.90;;;;;;10553404;28;20648;-80
2024/03/16 14:31:35;;;;;;;0.40;0.40;;;14.60;99.30;;;;;;10559170;28;20203;-80
2024/03/16 14:36:37;;;;;;;0.60;0.60;;;14.70;99.70;;;;;;10558271;28;20196;-80
2024/03/16 14:41:42;;;;;;;0.50;0.50;;;14.50;99.90;;;;;;10578489;28;20199;-80
2024/03/16 14:46:44;;;;;;;0.30;0.30;;;14.50;99.90;;;;;;10552320;28;20230;-80
2024/03/16 14:51:47;;;;;;;0.50;0.50;;;14.40;99.30;;;;;;10555126;28;20221;-80
2024/03/16 14:56:50;;;;;;;0.60;0.60;;;14.30;98.80;;;;;;10556463;28;20222;-80
2024/03/16 15:01:53;;;;;;;0.70;0.70;;;14.50;98.30;;;;;;10559407;28;20627;-80
2024/03/16 15:06:56;;;;;;;0.30;0.30;;;14.60;97.90;;;;;;10576431;28;20211;-80
2024/03/16 15:11:58;;;;;;;0.50;0.50;;;14.70;97.80;;;;;;10548475;28;20204;-80
2024/03/16 15:17:02;;;;;;;0.60;0.60;;;14.70;97.90;;;;;;10549930;28;20218;-81
2024/03/16 15:22:06;;;;;;;0.57;0.57;;;14.70;98.60;;;;;;10553701;28;20210;-80
2024/03/16 15:27:27;;;;;;;0.40;0.40;;;14.70;99.50;;;;;;10553631;28;20218;-80
2024/03/16 15:32:30;;;;;;;0.50;0.50;;;14.60;99.90;;;;;;10552585;28;20202;-80
2024/03/16 15:37:32;;;;;;;0.60;0.60;;;14.50;99.90;;;;;;10560808;28;20211;-81
2024/03/16 15:42:35;;;;;;;0.60;0.60;;;14.50;99.90;;;;;;10564339;28;20305;-80
2024/03/16 15:47:38;;;;;;;0.50;0.50;;;14.50;99.90;;;;;;10563755;28;20723;-80
2024/03/16 15:52:41;;;;;;;0.57;0.57;;;14.50;99.90;;;;;;10565145;28;20203;-80
2024/03/16 15:57:43;;;;;;;0.50;0.50;;;14.30;99.90;;;;;;10533816;28;20922;-80
2024/03/16 16:02:46;;;;;;;0.50;0.50;;;14.30;99.90;;;;;;10565215;28;20195;-79
2024/03/16 16:07:48;;;;;;;0.50;0.50;;;14.30;99.90;;;;;;10557272;28;20649;-81
2024/03/16 16:12:51;;;;;;;0.50;0.50;;;14.10;99.90;;;;;;10575216;28;20260;-81
2024/03/16 16:17:53;;;;;;;0.50;0.50;;;13.90;99.90;;;;;;10561271;28;20239;-81
2024/03/16 16:22:56;;;;;;;0.50;0.50;;;13.80;99.90;;;;;;10562133;28;20268;-80
2024/03/16 16:27:58;;;;;;;0.60;0.60;;;13.70;99.90;;;;;;10566132;28;20276;-80
2024/03/16 16:33:02;;;;;;;0.50;0.50;;;13.60;99.90;;;;;;10565631;28;20660;-80
2024/03/16 16:38:05;;;;;;;0.63;0.63;;;13.40;99.90;;;;;;10556682;28;20218;-81
2024/03/16 16:43:07;;;;;;;0.47;0.47;;;13.40;99.90;;;;;;10566872;28;20191;-80
2024/03/16 16:48:10;;;;;;;0.80;0.80;;;13.30;99.90;;;;;;10560758;28;20231;-80
2024/03/16 16:53:13;;;;;;;0.60;0.60;;;13.20;99.90;;;;;;10568286;28;20195;-80
2024/03/16 16:58:16;;;;;;;0.70;0.70;;;13.10;99.90;;;;;;10567540;28;20219;-80
2024/03/16 17:03:18;;;;;;;0.60;0.60;;;13.00;99.90;;;;;;10567297;28;20207;-80
2024/03/16 17:08:21;;;;;;;0.30;0.30;;;13.00;99.90;;;;;;10565503;28;20226;-80
2024/03/16 17:13:23;;;;;;;0.60;0.60;;;13.00;99.90;;;;;;10583393;28;20252;-80
2024/03/16 17:18:26;;;;;;;0.50;0.50;;;13.00;99.90;;;;;;10573582;28;20711;-82
2024/03/16 17:23:28;;;;;;;0.30;0.30;;;12.90;99.90;;;;;;10573961;28;20191;-82
2024/03/16 17:28:31;;;;;;;0.70;0.70;;;12.90;99.90;;;;;;10569931;28;20223;-82
2024/03/16 17:33:33;;;;;;;0.63;0.63;;;12.90;99.90;;;;;;10574286;28;20252;-81
2024/03/16 17:38:36;;;;;;;0.70;0.70;;;12.80;99.90;;;;;;10570618;28;20276;-82
2024/03/16 17:43:38;;;;;;;0.60;0.60;;;12.80;99.90;;;;;;10569367;28;20217;-82
2024/03/16 17:48:42;;;;;;;0.60;0.60;;;12.80;99.90;;;;;;10571250;28;20707;-84
2024/03/16 17:53:45;;;;;;;0.70;0.70;;;12.80;99.90;;;;;;10572158;28;20229;-83
2024/03/16 17:58:50;;;;;;;0.60;0.60;;;12.70;99.90;;;;;;10563381;28;20227;-83
2024/03/16 18:03:53;;;;;;;0.70;0.70;;;12.70;99.90;;;;;;10574249;28;20199;-82
2024/03/16 18:08:55;;;;;;;0.70;0.70;;;12.70;99.90;;;;;;10585271;28;20224;-83
2024/03/16 18:13:59;;;;;;;0.80;0.80;;;12.70;99.90;;;;;;10572654;28;20199;-83
2024/03/16 18:19:02;;;;;;;0.70;0.70;;;12.60;99.90;;;;;;10564812;28;20208;-83
2024/03/16 18:24:06;;;;;;;0.70;0.70;;;12.60;99.90;;;;;;10575457;28;20200;-83
2024/03/16 18:29:08;;;;;;;0.53;0.53;;;12.50;99.90;;;;;;10594503;28;20223;-83
2024/03/16 18:34:11;;;;;;;0.80;0.80;;;12.50;99.90;;;;;;10591887;28;20203;-82
2024/03/16 18:39:15;;;;;;;0.60;0.60;;;12.50;99.90;;;;;;10589045;28;20620;-81
2024/03/16 18:44:19;;;;;;;0.50;0.50;;;12.50;99.90;;;;;;10588768;28;20211;-81
2024/03/16 18:49:23;;;;;;;0.70;0.70;;;12.50;99.90;;;;;;10583518;28;20234;-82
2024/03/16 18:54:26;;;;;;;0.70;0.70;;;12.50;99.90;;;;;;10584851;28;20247;-80
2024/03/16 18:59:29;;;;;;;0.50;0.50;;;12.50;99.90;;;;;;10583842;28;20224;-81
2024/03/16 19:04:31;;;;;;;0.60;0.60;;;12.50;99.90;;;;;;10589497;28;20199;-81
2024/03/16 19:09:36;;;;;;;0.70;0.70;;;12.50;99.90;;;;;;10587172;28;20230;-81
2024/03/16 19:14:38;;;;;;;0.60;0.60;;;12.50;99.90;;;;;;10588735;28;20199;-81
2024/03/16 19:19:41;;;;;;;0.60;0.60;;;12.50;99.90;;;;;;10589702;28;20705;-81
2024/03/16 19:24:44;;;;;;;0.60;0.60;;;12.50;99.90;;;;;;10589404;28;20202;-81
2024/03/16 19:29:47;;;;;;;0.60;0.60;;;12.50;99.90;;;;;;10578217;28;20774;-81
2024/03/16 19:34:50;;;;;;;0.70;0.70;;;12.50;99.90;;;;;;10587068;28;20195;-81
2024/03/16 19:39:54;;;;;;;0.70;0.70;;;12.40;99.90;;;;;;10588623;28;20252;-81
2024/03/16 19:44:57;;;;;;;0.37;0.37;;;12.40;99.90;;;;;;10587446;28;20199;-81
2024/03/16 19:49:59;;;;;;;0.60;0.60;;;12.40;99.90;;;;;;10588977;28;20223;-81
2024/03/16 19:55:03;;;;;;;0.50;0.50;;;12.40;99.90;;;;;;10587849;28;20191;-81
2024/03/16 20:00:18;;;;;;;0.67;0.67;;;12.40;99.90;;;;;;10609200;28;20222;-81
2024/03/16 20:05:21;;;;;;;0.60;0.60;;;12.40;99.90;;;;;;10629297;27;20269;-81
2024/03/16 20:10:26;;;;;;;0.17;0.17;;;12.30;99.90;;;;;;10623048;27;20289;-80
2024/03/16 20:15:29;;;;;;;0.60;0.60;;;12.30;99.90;;;;;;10601597;28;20300;-81
2024/03/16 20:20:34;;;;;;;0.50;0.50;;;12.30;99.90;;;;;;10584145;28;20215;-81
2024/03/16 20:25:38;;;;;;;0.70;0.70;;;12.20;99.90;;;;;;10580796;28;20203;-81
2024/03/16 20:30:41;;;;;;;0.50;0.50;;;12.20;99.90;;;;;;10583619;28;20223;-81
2024/03/16 20:35:44;;;;;;;0.50;0.50;;;12.10;99.90;;;;;;10582361;28;20597;-81
2024/03/16 20:40:48;;;;;;;0.60;0.60;;;12.10;99.90;;;;;;10582540;28;20283;-80
2024/03/16 20:45:51;;;;;;;0.50;0.50;;;12.00;99.90;;;;;;10581126;28;20618;-81
2024/03/16 20:50:54;;;;;;;0.50;0.50;;;12.00;99.90;;;;;;10580846;28;20223;-81
2024/03/16 20:55:58;;;;;;;0.67;0.67;;;11.90;99.90;;;;;;10581546;28;20203;-80
2024/03/16 21:01:01;;;;;;;0.60;0.60;;;11.80;99.90;;;;;;10576653;28;20218;-81
2024/03/16 21:06:04;;;;;;;0.60;0.60;;;11.80;99.90;;;;;;10579503;28;20236;-80
2024/03/16 21:11:08;;;;;;;0.60;0.60;;;11.80;99.90;;;;;;10574740;28;20230;-80
2024/03/16 21:16:10;;;;;;;0.60;0.60;;;11.80;99.90;;;;;;10578025;28;20279;-80
2024/03/16 21:21:13;;;;;;;0.60;0.60;;;11.70;99.90;;;;;;10574747;28;20295;-80
2024/03/16 21:26:17;;;;;;;0.60;0.60;;;11.60;99.90;;;;;;10578094;28;20251;-81
2024/03/16 21:31:21;;;;;;;0.40;0.40;;;11.50;99.90;;;;;;10575346;28;20644;-80
2024/03/16 21:36:24;;;;;;;0.40;0.40;;;11.40;99.90;;;;;;10577730;28;20196;-79
2024/03/16 21:41:27;;;;;;;0.60;0.60;;;11.30;99.90;;;;;;10580845;28;20199;-79
2024/03/16 21:46:30;;;;;;;0.50;0.50;;;11.20;99.90;;;;;;10574521;28;20198;-79
2024/03/16 21:51:32;;;;;;;0.50;0.50;;;11.20;99.90;;;;;;10571714;28;20696;-78
2024/03/16 21:56:36;;;;;;;0.60;0.60;;;11.10;99.90;;;;;;10583605;28;20199;-78
2024/03/16 22:01:39;;;;;;;0.60;0.60;;;11.20;99.90;;;;;;10582626;28;20248;-80
2024/03/16 22:06:41;;;;;;;0.50;0.50;;;11.10;99.90;;;;;;10579230;28;20203;-80
2024/03/16 22:11:45;;;;;;;0.50;0.50;;;11.10;99.90;;;;;;10581663;28;20699;-80
2024/03/16 22:16:47;;;;;;;0.50;0.50;;;11.00;99.90;;;;;;10560660;28;20273;-80
2024/03/16 22:21:49;;;;;;;0.60;0.60;;;11.00;99.90;;;;;;10582387;28;20209;-80
2024/03/16 22:26:53;;;;;;;0.50;0.50;;;10.90;99.90;;;;;;10577463;28;20640;-80
2024/03/16 22:31:58;;;;;;;0.50;0.50;;;10.90;99.90;;;;;;10582708;28;20272;-81
2024/03/16 22:37:00;;;;;;;0.50;0.50;;;10.80;99.90;;;;;;10581386;28;20216;-80
2024/03/16 22:42:05;;;;;;;0.70;0.70;;;10.70;99.90;;;;;;10588585;28;20191;-81
2024/03/16 22:47:07;;;;;;;0.60;0.60;;;10.60;99.90;;;;;;10584669;28;20230;-80
2024/03/16 22:52:10;;;;;;;0.60;0.60;;;10.50;99.90;;;;;;10584261;28;20559;-80
2024/03/16 22:57:13;;;;;;;0.80;0.80;;;10.50;99.90;;;;;;10588948;28;20230;-81
2024/03/16 23:02:16;;;;;;;0.50;0.50;;;10.40;99.90;;;;;;10586739;28;20610;-81
2024/03/16 23:07:19;;;;;;;0.50;0.50;;;10.40;99.90;;;;;;10587677;28;20215;-81
2024/03/16 23:12:23;;;;;;;0.70;0.70;;;10.30;99.90;;;;;;10591347;28;20215;-80
2024/03/16 23:17:26;;;;;;;0.50;0.50;;;10.20;99.90;;;;;;10592856;28;20220;-80
2024/03/16 23:22:28;;;;;;;0.70;0.70;;;10.10;99.90;;;;;;10590957;28;20660;-80
2024/03/16 23:27:32;;;;;;;0.67;0.67;;;10.10;99.90;;;;;;10587466;28;20215;-80
2024/03/16 23:32:35;;;;;;;0.70;0.70;;;10.00;99.90;;;;;;10588903;28;20688;-80
2024/03/16 23:37:38;;;;;;;0.60;0.60;;;10.00;99.90;;;;;;10587406;28;20227;-79
2024/03/16 23:42:42;;;;;;;0.77;0.77;;;9.90;99.90;;;;;;10585442;28;20195;-80
2024/03/16 23:47:44;;;;;;;0.70;0.70;;;9.80;99.90;;;;;;10584833;28;20219;-79
2024/03/16 23:52:47;;;;;;;0.83;0.83;;;9.80;99.90;;;;;;10586873;28;20230;-79
2024/03/16 23:57:52;;;;;;;0.83;0.83;;;9.70;99.90;;;;;;10579652;28;20219;-78
